sensor_id;sensor_type;location;lat;lon;timestamp;pressure;altitude;pressure_sealevel;temperature;humidity
24306;BME280;12423;48.768;8.850;2023-05-24T00:00:53;97261.28;;;12.93;100.00
24306;BME280;12423;48.768;8.850;2023-05-24T00:02:55;97267.19;;;12.96;100.00
24306;BME280;12423;48.768;8.850;2023-05-24T00:04:57;97269.88;;;13.06;100.00
24306;BME280;12423;48.768;8.850;2023-05-24T00:07:00;97275.38;;;12.95;100.00
24306;BME280;12423;48.768;8.850;2023-05-24T00:09:04;97270.56;;;12.88;100.00
24306;BME280;12423;48.768;8.850;2023-05-24T00:11:05;97260.84;;;12.97;100.00
24306;BME280;12423;48.768;8.850;2023-05-24T00:13:07;97268.34;;;13.03;100.00
24306;BME280;12423;48.768;8.850;2023-05-24T00:15:08;97264.78;;;12.93;100.00
24306;BME280;12423;48.768;8.850;2023-05-24T00:17:09;97266.63;;;12.93;100.00
24306;BME280;12423;48.768;8.850;2023-05-24T00:19:10;97268.75;;;12.89;100.00
24306;BME280;12423;48.768;8.850;2023-05-24T00:21:12;97270.88;;;12.85;100.00
24306;BME280;12423;48.768;8.850;2023-05-24T00:23:13;97266.34;;;12.86;100.00
24306;BME280;12423;48.768;8.850;2023-05-24T00:25:14;97264.94;;;12.91;100.00
24306;BME280;12423;48.768;8.850;2023-05-24T00:27:15;97265.78;;;12.92;100.00
24306;BME280;12423;48.768;8.850;2023-05-24T00:29:16;97266.63;;;12.93;100.00
24306;BME280;12423;48.768;8.850;2023-05-24T00:31:17;97267.47;;;12.93;100.00
24306;BME280;12423;48.768;8.850;2023-05-24T00:33:18;97264.50;;;12.96;100.00
24306;BME280;12423;48.768;8.850;2023-05-24T00:35:19;97262.09;;;12.93;100.00
24306;BME280;12423;48.768;8.850;2023-05-24T00:37:20;97266.34;;;12.86;100.00
24306;BME280;12423;48.768;8.850;2023-05-24T00:39:22;97264.34;;;12.78;100.00
24306;BME280;12423;48.768;8.850;2023-05-24T00:41:23;97268.88;;;12.78;100.00
24306;BME280;12423;48.768;8.850;2023-05-24T00:43:24;97254.78;;;12.76;100.00
24306;BME280;12423;48.768;8.850;2023-05-24T00:45:25;97258.56;;;12.73;100.00
24306;BME280;12423;48.768;8.850;2023-05-24T00:47:26;97262.97;;;12.74;100.00
24306;BME280;12423;48.768;8.850;2023-05-24T00:49:27;97266.47;;;12.75;100.00
24306;BME280;12423;48.768;8.850;2023-05-24T00:51:29;97258.03;;;12.69;100.00
24306;BME280;12423;48.768;8.850;2023-05-24T00:53:34;97259.56;;;12.62;100.00
24306;BME280;12423;48.768;8.850;2023-05-24T00:55:36;97263.22;;;12.61;100.00
24306;BME280;12423;48.768;8.850;2023-05-24T00:57:37;97253.06;;;12.65;100.00
24306;BME280;12423;48.768;8.850;2023-05-24T00:59:39;97255.63;;;12.66;100.00
24306;BME280;12423;48.768;8.850;2023-05-24T01:01:40;97254.38;;;12.70;100.00
24306;BME280;12423;48.768;8.850;2023-05-24T01:03:42;97253.22;;;12.73;100.00
24306;BME280;12423;48.768;8.850;2023-05-24T01:05:45;97262.97;;;12.74;100.00
24306;BME280;12423;48.768;8.850;2023-05-24T01:07:57;97256.59;;;12.65;100.00
24306;BME280;12423;48.768;8.850;2023-05-24T01:10:24;97255.47;;;12.68;100.00
24306;BME280;12423;48.768;8.850;2023-05-24T01:12:52;97262.25;;;12.62;100.00
24306;BME280;12423;48.768;8.850;2023-05-24T01:15:45;97260.28;;;12.64;100.00
24306;BME280;12423;48.768;8.850;2023-05-24T01:17:42;97254.63;;;12.58;100.00
24306;BME280;12423;48.768;8.850;2023-05-24T01:22:00;97257.28;;;12.48;100.00
24306;BME280;12423;48.768;8.850;2023-05-24T01:24:29;97255.28;;;12.40;100.00
24306;BME280;12423;48.768;8.850;2023-05-24T01:27:05;97248.56;;;12.46;100.00
24306;BME280;12423;48.768;8.850;2023-05-24T01:29:09;97255.56;;;12.37;100.00
24306;BME280;12423;48.768;8.850;2023-05-24T01:31:13;97256.72;;;12.44;100.00
24306;BME280;12423;48.768;8.850;2023-05-24T01:33:15;97251.50;;;12.33;100.00
24306;BME280;12423;48.768;8.850;2023-05-24T01:35:16;97249.78;;;12.32;100.00
24306;BME280;12423;48.768;8.850;2023-05-24T01:37:17;97250.81;;;12.41;100.00
24306;BME280;12423;48.768;8.850;2023-05-24T01:39:19;97248.41;;;12.38;100.00
24306;BME280;12423;48.768;8.850;2023-05-24T01:41:42;97251.50;;;12.43;100.00
24306;BME280;12423;48.768;8.850;2023-05-24T01:44:02;97257.69;;;12.43;100.00
24306;BME280;12423;48.768;8.850;2023-05-24T01:46:36;97257.41;;;12.37;100.00
24306;BME280;12423;48.768;8.850;2023-05-24T01:48:53;97265.19;;;12.40;100.00
24306;BME280;12423;48.768;8.850;2023-05-24T01:51:00;97257.00;;;12.41;100.00
24306;BME280;12423;48.768;8.850;2023-05-24T01:53:05;97261.38;;;12.32;100.00
24306;BME280;12423;48.768;8.850;2023-05-24T01:55:08;97261.50;;;12.31;100.00
24306;BME280;12423;48.768;8.850;2023-05-24T01:57:09;97261.94;;;12.36;100.00
24306;BME280;12423;48.768;8.850;2023-05-24T01:59:11;97264.31;;;12.29;100.00
24306;BME280;12423;48.768;8.850;2023-05-24T02:01:13;97263.88;;;12.24;100.00
24306;BME280;12423;48.768;8.850;2023-05-24T02:03:15;97268.22;;;12.25;100.00
24306;BME280;12423;48.768;8.850;2023-05-24T02:05:16;97269.91;;;12.16;100.00
24306;BME280;12423;48.768;8.850;2023-05-24T02:07:17;97263.88;;;12.24;100.00
24306;BME280;12423;48.768;8.850;2023-05-24T02:09:19;97269.63;;;12.20;100.00
24306;BME280;12423;48.768;8.850;2023-05-24T02:11:20;97262.72;;;12.17;100.00
24306;BME280;12423;48.768;8.850;2023-05-24T02:13:21;97264.81;;;12.13;100.00
24306;BME280;12423;48.768;8.850;2023-05-24T02:15:22;97268.59;;;12.11;100.00
24306;BME280;12423;48.768;8.850;2023-05-24T02:17:23;97264.53;;;12.07;100.00
24306;BME280;12423;48.768;8.850;2023-05-24T02:19:27;97263.41;;;12.09;100.00
24306;BME280;12423;48.768;8.850;2023-05-24T02:21:28;97263.72;;;12.16;100.00
24306;BME280;12423;48.768;8.850;2023-05-24T02:23:29;97266.63;;;12.03;100.00
24306;BME280;12423;48.768;8.850;2023-05-24T02:25:31;97270.16;;;12.04;100.00
24306;BME280;12423;48.768;8.850;2023-05-24T02:27:32;97266.22;;;12.08;100.00
24306;BME280;12423;48.768;8.850;2023-05-24T02:29:33;97273.25;;;12.09;100.00
24306;BME280;12423;48.768;8.850;2023-05-24T02:31:34;97268.78;;;12.09;100.00
24306;BME280;12423;48.768;8.850;2023-05-24T02:33:36;97265.06;;;12.01;100.00
24306;BME280;12423;48.768;8.850;2023-05-24T02:35:37;97277.75;;;11.98;100.00
24306;BME280;12423;48.768;8.850;2023-05-24T02:37:38;97279.44;;;12.00;100.00
24306;BME280;12423;48.768;8.850;2023-05-24T02:39:42;97279.44;;;12.00;100.00
24306;BME280;12423;48.768;8.850;2023-05-24T02:41:43;97268.13;;;11.96;100.00
24306;BME280;12423;48.768;8.850;2023-05-24T02:43:44;97278.38;;;11.91;100.00
24306;BME280;12423;48.768;8.850;2023-05-24T02:45:45;97276.31;;;11.94;100.00
24306;BME280;12423;48.768;8.850;2023-05-24T02:47:46;97273.16;;;11.89;100.00
24306;BME280;12423;48.768;8.850;2023-05-24T02:49:47;97263.66;;;11.75;100.00
24306;BME280;12423;48.768;8.850;2023-05-24T02:51:48;97272.53;;;11.76;100.00
24306;BME280;12423;48.768;8.850;2023-05-24T02:53:49;97267.91;;;11.78;100.00
24306;BME280;12423;48.768;8.850;2023-05-24T02:55:51;97266.03;;;11.69;100.00
24306;BME280;12423;48.768;8.850;2023-05-24T02:57:52;97267.63;;;11.81;100.00
24306;BME280;12423;48.768;8.850;2023-05-24T02:59:54;97267.75;;;11.79;100.00
24306;BME280;12423;48.768;8.850;2023-05-24T03:01:56;97268.72;;;11.69;100.00
24306;BME280;12423;48.768;8.850;2023-05-24T03:03:59;97265.63;;;11.73;100.00
24306;BME280;12423;48.768;8.850;2023-05-24T03:06:00;97262.28;;;11.81;100.00
24306;BME280;12423;48.768;8.850;2023-05-24T03:08:01;97260.41;;;11.72;100.00
24306;BME280;12423;48.768;8.850;2023-05-24T03:10:03;97258.72;;;11.71;100.00
24306;BME280;12423;48.768;8.850;2023-05-24T03:12:04;97260.28;;;11.73;100.00
24306;BME280;12423;48.768;8.850;2023-05-24T03:14:08;97258.53;;;11.62;100.00
24306;BME280;12423;48.768;8.850;2023-05-24T03:16:12;97258.84;;;11.69;100.00
24306;BME280;12423;48.768;8.850;2023-05-24T03:18:13;97258.00;;;11.69;100.00
24306;BME280;12423;48.768;8.850;2023-05-24T03:20:16;97253.34;;;11.71;100.00
24306;BME280;12423;48.768;8.850;2023-05-24T03:22:18;97259.25;;;11.65;100.00
24306;BME280;12423;48.768;8.850;2023-05-24T03:24:19;97249.53;;;11.64;100.00
24306;BME280;12423;48.768;8.850;2023-05-24T03:26:20;97247.97;;;11.61;100.00
24306;BME280;12423;48.768;8.850;2023-05-24T03:28:21;97253.00;;;11.54;100.00
24306;BME280;12423;48.768;8.850;2023-05-24T03:30:22;97254.13;;;11.52;100.00
24306;BME280;12423;48.768;8.850;2023-05-24T03:32:27;97253.81;;;11.45;100.00
24306;BME280;12423;48.768;8.850;2023-05-24T03:34:28;97252.28;;;11.52;100.00
24306;BME280;12423;48.768;8.850;2023-05-24T03:36:30;97266.44;;;11.43;100.00
24306;BME280;12423;48.768;8.850;2023-05-24T03:38:32;97255.63;;;11.44;100.00
24306;BME280;12423;48.768;8.850;2023-05-24T03:40:33;97254.91;;;11.42;100.00
24306;BME280;12423;48.768;8.850;2023-05-24T03:42:46;97253.53;;;11.48;100.00
24306;BME280;12423;48.768;8.850;2023-05-24T03:44:48;97256.81;;;11.31;100.00
24306;BME280;12423;48.768;8.850;2023-05-24T03:46:49;97254.84;;;11.33;100.00
24306;BME280;12423;48.768;8.850;2023-05-24T03:48:50;97249.44;;;11.23;100.00
24306;BME280;12423;48.768;8.850;2023-05-24T03:50:51;97250.56;;;11.20;100.00
24306;BME280;12423;48.768;8.850;2023-05-24T03:52:52;97251.41;;;11.21;100.00
24306;BME280;12423;48.768;8.850;2023-05-24T03:54:53;97257.72;;;11.20;100.00
24306;BME280;12423;48.768;8.850;2023-05-24T03:56:55;97250.69;;;11.19;100.00
24306;BME280;12423;48.768;8.850;2023-05-24T03:58:56;97256.88;;;11.19;100.00
24306;BME280;12423;48.768;8.850;2023-05-24T04:01:00;97246.06;;;11.21;100.00
24306;BME280;12423;48.768;8.850;2023-05-24T04:03:02;97251.03;;;11.25;100.00
24306;BME280;12423;48.768;8.850;2023-05-24T04:05:06;97250.25;;;11.14;100.00
24306;BME280;12423;48.768;8.850;2023-05-24T04:07:12;97238.56;;;11.15;100.00
24306;BME280;12423;48.768;8.850;2023-05-24T04:09:15;97230.34;;;11.06;100.00
24306;BME280;12423;48.768;8.850;2023-05-24T04:11:16;97240.38;;;11.14;100.00
24306;BME280;12423;48.768;8.850;2023-05-24T04:13:19;97249.13;;;11.16;100.00
24306;BME280;12423;48.768;8.850;2023-05-24T04:15:20;97240.66;;;11.11;100.00
24306;BME280;12423;48.768;8.850;2023-05-24T04:17:22;97242.69;;;11.19;100.00
24306;BME280;12423;48.768;8.850;2023-05-24T04:19:27;97245.03;;;11.12;100.00
24306;BME280;12423;48.768;8.850;2023-05-24T04:21:29;97244.69;;;11.05;100.00
24306;BME280;12423;48.768;8.850;2023-05-24T04:23:30;97243.69;;;11.06;100.00
24306;BME280;12423;48.768;8.850;2023-05-24T04:25:31;97247.44;;;11.15;100.00
24306;BME280;12423;48.768;8.850;2023-05-24T04:27:33;97242.59;;;11.09;100.00
24306;BME280;12423;48.768;8.850;2023-05-24T04:29:37;97252.78;;;11.15;100.00
24306;BME280;12423;48.768;8.850;2023-05-24T04:31:41;97247.31;;;10.96;100.00
24306;BME280;12423;48.768;8.850;2023-05-24T04:33:45;97243.75;;;10.95;100.00
24306;BME280;12423;48.768;8.850;2023-05-24T04:35:48;97253.09;;;11.01;100.00
24306;BME280;12423;48.768;8.850;2023-05-24T04:37:51;97252.72;;;11.05;100.00
24306;BME280;12423;48.768;8.850;2023-05-24T04:39:54;97248.34;;;11.04;100.00
24306;BME280;12423;48.768;8.850;2023-05-24T04:41:55;97254.97;;;11.10;100.00
24306;BME280;12423;48.768;8.850;2023-05-24T04:43:57;97255.53;;;11.04;100.00
24306;BME280;12423;48.768;8.850;2023-05-24T04:46:01;97261.31;;;11.09;100.00
24306;BME280;12423;48.768;8.850;2023-05-24T04:48:02;97266.94;;;11.06;100.00
24306;BME280;12423;48.768;8.850;2023-05-24T04:50:04;97273.78;;;10.99;100.00
24306;BME280;12423;48.768;8.850;2023-05-24T04:52:06;97268.88;;;11.04;100.00
24306;BME280;12423;48.768;8.850;2023-05-24T04:54:07;97264.84;;;11.10;100.00
24306;BME280;12423;48.768;8.850;2023-05-24T04:56:10;97273.38;;;11.24;100.00
24306;BME280;12423;48.768;8.850;2023-05-24T04:58:15;97273.13;;;11.28;100.00
24306;BME280;12423;48.768;8.850;2023-05-24T05:00:16;97276.84;;;11.15;100.00
24306;BME280;12423;48.768;8.850;2023-05-24T05:02:17;97277.03;;;11.23;100.00
24306;BME280;12423;48.768;8.850;2023-05-24T05:04:18;97277.50;;;11.29;100.00
24306;BME280;12423;48.768;8.850;2023-05-24T05:06:19;97279.31;;;11.28;100.00
24306;BME280;12423;48.768;8.850;2023-05-24T05:08:20;97279.66;;;11.14;100.00
24306;BME280;12423;48.768;8.850;2023-05-24T05:10:21;97281.91;;;11.18;100.00
24306;BME280;12423;48.768;8.850;2023-05-24T05:12:22;97286.94;;;11.12;100.00
24306;BME280;12423;48.768;8.850;2023-05-24T05:14:23;97282.31;;;11.14;100.00
24306;BME280;12423;48.768;8.850;2023-05-24T05:16:24;97292.34;;;11.21;100.00
24306;BME280;12423;48.768;8.850;2023-05-24T05:18:25;97284.59;;;11.18;100.00
24306;BME280;12423;48.768;8.850;2023-05-24T05:20:26;97292.41;;;11.10;100.00
24306;BME280;12423;48.768;8.850;2023-05-24T05:22:27;97291.63;;;11.19;100.00
24306;BME280;12423;48.768;8.850;2023-05-24T05:24:28;97283.38;;;11.22;100.00
24306;BME280;12423;48.768;8.850;2023-05-24T05:26:30;97287.19;;;11.30;100.00
24306;BME280;12423;48.768;8.850;2023-05-24T05:28:30;97277.56;;;11.17;100.00
24306;BME280;12423;48.768;8.850;2023-05-24T05:30:31;97286.94;;;11.33;100.00
24306;BME280;12423;48.768;8.850;2023-05-24T05:32:33;97282.66;;;11.20;100.00
24306;BME280;12423;48.768;8.850;2023-05-24T05:34:34;97289.69;;;11.21;100.00
24306;BME280;12423;48.768;8.850;2023-05-24T05:36:36;97279.63;;;11.35;100.00
24306;BME280;12423;48.768;8.850;2023-05-24T05:38:40;97281.53;;;11.23;100.00
24306;BME280;12423;48.768;8.850;2023-05-24T05:40:41;97291.59;;;11.31;100.00
24306;BME280;12423;48.768;8.850;2023-05-24T05:42:42;97286.56;;;11.37;100.00
24306;BME280;12423;48.768;8.850;2023-05-24T05:44:43;97280.19;;;11.29;100.00
24306;BME280;12423;48.768;8.850;2023-05-24T05:46:44;97287.91;;;11.32;100.00
24306;BME280;12423;48.768;8.850;2023-05-24T05:48:45;97281.22;;;11.37;100.00
24306;BME280;12423;48.768;8.850;2023-05-24T05:50:47;97277.28;;;11.41;100.00
24306;BME280;12423;48.768;8.850;2023-05-24T05:52:48;97279.94;;;11.41;100.00
24306;BME280;12423;48.768;8.850;2023-05-24T05:54:49;97283.09;;;11.47;100.00
24306;BME280;12423;48.768;8.850;2023-05-24T05:56:50;97282.81;;;11.50;100.00
24306;BME280;12423;48.768;8.850;2023-05-24T05:58:51;97283.63;;;11.40;100.00
24306;BME280;12423;48.768;8.850;2023-05-24T06:00:52;97277.22;;;11.53;100.00
24306;BME280;12423;48.768;8.850;2023-05-24T06:02:53;97282.03;;;11.59;100.00
24306;BME280;12423;48.768;8.850;2023-05-24T06:04:55;97281.91;;;11.60;100.00
24306;BME280;12423;48.768;8.850;2023-05-24T06:06:56;97274.31;;;11.66;100.00
24306;BME280;12423;48.768;8.850;2023-05-24T06:08:57;97274.13;;;11.57;100.00
24306;BME280;12423;48.768;8.850;2023-05-24T06:10:57;97283.44;;;11.63;100.00
24306;BME280;12423;48.768;8.850;2023-05-24T06:13:01;97282.88;;;11.59;100.00
24306;BME280;12423;48.768;8.850;2023-05-24T06:15:02;97278.06;;;11.53;100.00
24306;BME280;12423;48.768;8.850;2023-05-24T06:17:06;97268.84;;;11.67;100.00
24306;BME280;12423;48.768;8.850;2023-05-24T06:19:07;97275.91;;;11.68;100.00
24306;BME280;12423;48.768;8.850;2023-05-24T06:21:08;97272.41;;;11.77;100.00
24306;BME280;12423;48.768;8.850;2023-05-24T06:23:10;97276.47;;;11.72;100.00
24306;BME280;12423;48.768;8.850;2023-05-24T06:25:11;97278.63;;;11.78;100.00
24306;BME280;12423;48.768;8.850;2023-05-24T06:27:18;97279.59;;;11.77;100.00
24306;BME280;12423;48.768;8.850;2023-05-24T06:29:19;97275.06;;;11.77;100.00
24306;BME280;12423;48.768;8.850;2023-05-24T06:31:21;97282.19;;;11.88;100.00
24306;BME280;12423;48.768;8.850;2023-05-24T06:33:22;97285.97;;;11.86;100.00
24306;BME280;12423;48.768;8.850;2023-05-24T06:35:23;97282.41;;;11.75;100.00
24306;BME280;12423;48.768;8.850;2023-05-24T06:37:24;97281.13;;;11.79;100.00
24306;BME280;12423;48.768;8.850;2023-05-24T06:39:25;97286.00;;;11.65;100.00
24306;BME280;12423;48.768;8.850;2023-05-24T06:41:26;97283.78;;;11.70;100.00
24306;BME280;12423;48.768;8.850;2023-05-24T06:43:28;97287.75;;;11.75;100.00
24306;BME280;12423;48.768;8.850;2023-05-24T06:45:29;97290.31;;;11.77;100.00
24306;BME280;12423;48.768;8.850;2023-05-24T06:47:30;97289.03;;;11.81;100.00
24306;BME280;12423;48.768;8.850;2023-05-24T06:49:31;97297.66;;;11.85;100.00
24306;BME280;12423;48.768;8.850;2023-05-24T06:51:32;97298.97;;;11.69;100.00
24306;BME280;12423;48.768;8.850;2023-05-24T06:53:33;97301.22;;;11.64;100.00
24306;BME280;12423;48.768;8.850;2023-05-24T06:55:34;97295.66;;;11.77;100.00
24306;BME280;12423;48.768;8.850;2023-05-24T06:57:35;97294.84;;;11.86;100.00
24306;BME280;12423;48.768;8.850;2023-05-24T06:59:36;97310.31;;;12.04;100.00
24306;BME280;12423;48.768;8.850;2023-05-24T07:01:38;97310.31;;;12.04;100.00
24306;BME280;12423;48.768;8.850;2023-05-24T07:03:39;97302.81;;;11.97;100.00
24306;BME280;12423;48.768;8.850;2023-05-24T07:05:40;97310.34;;;12.13;100.00
24306;BME280;12423;48.768;8.850;2023-05-24T07:07:42;97309.59;;;12.02;100.00
24306;BME280;12423;48.768;8.850;2023-05-24T07:09:43;97317.25;;;12.06;100.00
24306;BME280;12423;48.768;8.850;2023-05-24T07:11:44;97321.22;;;12.22;100.00
24306;BME280;12423;48.768;8.850;2023-05-24T07:13:45;97321.63;;;12.17;100.00
24306;BME280;12423;48.768;8.850;2023-05-24T07:15:46;97325.00;;;12.19;100.00
24306;BME280;12423;48.768;8.850;2023-05-24T07:17:47;97331.38;;;12.18;100.00
24306;BME280;12423;48.768;8.850;2023-05-24T07:19:48;97336.59;;;12.20;100.00
24306;BME280;12423;48.768;8.850;2023-05-24T07:21:49;97338.69;;;12.16;100.00
24306;BME280;12423;48.768;8.850;2023-05-24T07:23:50;97337.03;;;12.25;100.00
24306;BME280;12423;48.768;8.850;2023-05-24T07:25:51;97338.13;;;12.22;100.00
24306;BME280;12423;48.768;8.850;2023-05-24T07:27:52;97336.59;;;12.20;100.00
24306;BME280;12423;48.768;8.850;2023-05-24T07:29:53;97338.88;;;12.24;100.00
24306;BME280;12423;48.768;8.850;2023-05-24T07:31:54;97337.97;;;12.14;100.00
24306;BME280;12423;48.768;8.850;2023-05-24T07:33:56;97347.47;;;12.28;100.00
24306;BME280;12423;48.768;8.850;2023-05-24T07:35:57;97348.44;;;12.27;100.00
24306;BME280;12423;48.768;8.850;2023-05-24T07:37:58;97351.13;;;12.27;100.00
24306;BME280;12423;48.768;8.850;2023-05-24T07:39:59;97347.78;;;12.34;100.00
24306;BME280;12423;48.768;8.850;2023-05-24T07:42:00;97342.91;;;12.59;100.00
24306;BME280;12423;48.768;8.850;2023-05-24T07:44:01;97348.03;;;12.82;100.00
24306;BME280;12423;48.768;8.850;2023-05-24T07:46:02;97353.97;;;12.76;100.00
24306;BME280;12423;48.768;8.850;2023-05-24T07:48:03;97347.28;;;12.60;100.00
24306;BME280;12423;48.768;8.850;2023-05-24T07:50:04;97355.69;;;12.36;100.00
24306;BME280;12423;48.768;8.850;2023-05-24T07:52:05;97355.56;;;12.38;100.00
24306;BME280;12423;48.768;8.850;2023-05-24T07:54:06;97355.00;;;12.44;100.00
24306;BME280;12423;48.768;8.850;2023-05-24T07:56:07;97350.09;;;12.49;100.00
24306;BME280;12423;48.768;8.850;2023-05-24T07:58:10;97359.63;;;12.42;100.00
24306;BME280;12423;48.768;8.850;2023-05-24T08:00:11;97351.47;;;12.43;100.00
24306;BME280;12423;48.768;8.850;2023-05-24T08:02:14;97352.22;;;12.55;100.00
24306;BME280;12423;48.768;8.850;2023-05-24T08:04:16;97353.50;;;12.61;100.00
24306;BME280;12423;48.768;8.850;2023-05-24T08:06:17;97354.44;;;12.50;100.00
24306;BME280;12423;48.768;8.850;2023-05-24T08:08:18;97356.06;;;12.62;100.00
24306;BME280;12423;48.768;8.850;2023-05-24T08:10:20;97364.53;;;12.67;100.00
24306;BME280;12423;48.768;8.850;2023-05-24T08:12:21;97365.94;;;12.71;100.00
24306;BME280;12423;48.768;8.850;2023-05-24T08:14:22;97364.28;;;12.80;100.00
24306;BME280;12423;48.768;8.850;2023-05-24T08:16:23;97369.03;;;12.77;100.00
24306;BME280;12423;48.768;8.850;2023-05-24T08:18:24;97365.94;;;12.71;100.00
24306;BME280;12423;48.768;8.850;2023-05-24T08:20:25;97371.66;;;12.57;100.00
24306;BME280;12423;48.768;8.850;2023-05-24T08:22:26;97369.56;;;12.51;100.00
24306;BME280;12423;48.768;8.850;2023-05-24T08:24:27;97373.91;;;12.52;100.00
24306;BME280;12423;48.768;8.850;2023-05-24T08:26:28;97368.72;;;12.60;100.00
24306;BME280;12423;48.768;8.850;2023-05-24T08:28:29;97372.56;;;12.67;100.00
24306;BME280;12423;48.768;8.850;2023-05-24T08:30:30;97368.78;;;12.80;100.00
24306;BME280;12423;48.768;8.850;2023-05-24T08:32:31;97377.41;;;12.93;100.00
24306;BME280;12423;48.768;8.850;2023-05-24T08:34:32;97371.63;;;12.98;100.00
24306;BME280;12423;48.768;8.850;2023-05-24T08:36:36;97370.66;;;13.18;100.00
24306;BME280;12423;48.768;8.850;2023-05-24T08:38:37;97369.13;;;13.25;100.00
24306;BME280;12423;48.768;8.850;2023-05-24T08:40:38;97368.00;;;13.38;100.00
24306;BME280;12423;48.768;8.850;2023-05-24T08:42:40;97364.75;;;13.54;98.54
24306;BME280;12423;48.768;8.850;2023-05-24T08:45:08;97374.78;;;13.42;98.08
24306;BME280;12423;48.768;8.850;2023-05-24T08:47:11;97373.78;;;13.23;98.66
24306;BME280;12423;48.768;8.850;2023-05-24T08:49:12;97378.84;;;13.07;100.00
24306;BME280;12423;48.768;8.850;2023-05-24T08:51:15;97380.38;;;13.09;100.00
24306;BME280;12423;48.768;8.850;2023-05-24T08:53:17;97378.41;;;13.21;100.00
24306;BME280;12423;48.768;8.850;2023-05-24T08:55:18;97385.47;;;13.13;99.54
24306;BME280;12423;48.768;8.850;2023-05-24T08:57:20;97382.91;;;13.01;100.00
24306;BME280;12423;48.768;8.850;2023-05-24T08:59:22;97378.41;;;13.02;99.11
24306;BME280;12423;48.768;8.850;2023-05-24T09:01:25;97378.97;;;12.96;100.00
24306;BME280;12423;48.768;8.850;2023-05-24T09:03:26;97375.28;;;12.97;99.56
24306;BME280;12423;48.768;8.850;2023-05-24T09:05:28;97372.44;;;12.88;99.01
24306;BME280;12423;48.768;8.850;2023-05-24T09:07:31;97368.47;;;12.73;100.00
24306;BME280;12423;48.768;8.850;2023-05-24T09:09:33;97369.72;;;12.59;100.00
24306;BME280;12423;48.768;8.850;2023-05-24T09:11:34;97373.25;;;12.60;100.00
24306;BME280;12423;48.768;8.850;2023-05-24T09:13:35;97376.66;;;12.71;100.00
24306;BME280;12423;48.768;8.850;2023-05-24T09:15:36;97379.13;;;12.53;100.00
24306;BME280;12423;48.768;8.850;2023-05-24T09:17:37;97373.66;;;12.55;100.00
24306;BME280;12423;48.768;8.850;2023-05-24T09:19:49;97375.19;;;12.48;100.00
24306;BME280;12423;48.768;8.850;2023-05-24T09:21:50;97373.50;;;12.57;100.00
24306;BME280;12423;48.768;8.850;2023-05-24T09:23:52;97372.41;;;12.59;100.00
24306;BME280;12423;48.768;8.850;2023-05-24T09:25:54;97374.50;;;12.65;100.00
24306;BME280;12423;48.768;8.850;2023-05-24T09:27:55;97380.34;;;12.70;100.00
24306;BME280;12423;48.768;8.850;2023-05-24T09:29:56;97381.72;;;12.65;100.00
24306;BME280;12423;48.768;8.850;2023-05-24T09:31:57;97388.38;;;12.70;100.00
24306;BME280;12423;48.768;8.850;2023-05-24T09:33:58;97384.44;;;12.75;100.00
24306;BME280;12423;48.768;8.850;2023-05-24T09:36:04;97381.91;;;12.83;100.00
24306;BME280;12423;48.768;8.850;2023-05-24T09:38:05;97383.03;;;12.90;100.00
24306;BME280;12423;48.768;8.850;2023-05-24T09:40:16;97389.69;;;12.96;100.00
24306;BME280;12423;48.768;8.850;2023-05-24T09:42:20;97381.25;;;13.00;100.00
24306;BME280;12423;48.768;8.850;2023-05-24T09:44:24;97388.13;;;12.93;100.00
24306;BME280;12423;48.768;8.850;2023-05-24T09:46:27;97387.56;;;12.89;100.00
24306;BME280;12423;48.768;8.850;2023-05-24T09:48:30;97386.59;;;13.00;100.00
24306;BME280;12423;48.768;8.850;2023-05-24T09:50:31;97383.47;;;12.85;100.00
24306;BME280;12423;48.768;8.850;2023-05-24T09:52:36;97386.53;;;12.71;100.00
24306;BME280;12423;48.768;8.850;2023-05-24T09:54:37;97382.88;;;12.82;100.00
24306;BME280;12423;48.768;8.850;2023-05-24T09:56:41;97384.59;;;12.83;100.00
24306;BME280;12423;48.768;8.850;2023-05-24T09:58:44;97385.72;;;12.90;100.00
24306;BME280;12423;48.768;8.850;2023-05-24T10:00:45;97389.38;;;12.79;100.00
24306;BME280;12423;48.768;8.850;2023-05-24T10:02:59;97387.81;;;12.77;100.00
24306;BME280;12423;48.768;8.850;2023-05-24T10:05:00;97387.50;;;12.70;100.00
24306;BME280;12423;48.768;8.850;2023-05-24T10:07:03;97386.31;;;12.94;100.00
24306;BME280;12423;48.768;8.850;2023-05-24T10:09:05;97382.34;;;12.88;100.00
24306;BME280;12423;48.768;8.850;2023-05-24T10:11:06;97389.16;;;13.02;100.00
24306;BME280;12423;48.768;8.850;2023-05-24T10:13:08;97392.66;;;12.93;100.00
24306;BME280;12423;48.768;8.850;2023-05-24T10:15:10;97383.06;;;13.09;100.00
24306;BME280;12423;48.768;8.850;2023-05-24T10:17:12;97384.34;;;13.05;100.00
24306;BME280;12423;48.768;8.850;2023-05-24T10:19:13;97386.03;;;13.06;100.00
24306;BME280;12423;48.768;8.850;2023-05-24T10:21:14;97388.72;;;13.06;100.00
24306;BME280;12423;48.768;8.850;2023-05-24T10:23:19;97389.88;;;13.14;99.10
24306;BME280;12423;48.768;8.850;2023-05-24T10:25:23;97384.22;;;13.17;99.42
24306;BME280;12423;48.768;8.850;2023-05-24T10:27:29;97381.69;;;13.25;100.00
24306;BME280;12423;48.768;8.850;2023-05-24T10:32:13;97381.56;;;13.36;99.70
24306;BME280;12423;48.768;8.850;2023-05-24T10:34:15;97375.22;;;13.37;98.89
24306;BME280;12423;48.768;8.850;2023-05-24T10:36:17;97372.81;;;13.34;100.00
24306;BME280;12423;48.768;8.850;2023-05-24T10:38:22;97371.69;;;13.56;99.50
24306;BME280;12423;48.768;8.850;2023-05-24T10:40:23;97369.00;;;13.66;99.42
24306;BME280;12423;48.768;8.850;2023-05-24T10:42:30;97362.59;;;13.77;98.65
24306;BME280;12423;48.768;8.850;2023-05-24T10:44:32;97367.13;;;13.76;97.73
24306;BME280;12423;48.768;8.850;2023-05-24T10:46:33;97367.13;;;13.86;95.40